createdAt,value
2017-05-11T00:00:15.047Z,5.45
2017-05-11T00:01:37.470Z,5.38
2017-05-11T00:02:59.317Z,5.42
2017-05-11T00:04:20.849Z,5.38
2017-05-11T00:05:42.678Z,5.33
2017-05-11T00:07:04.483Z,5.28
2017-05-11T00:08:26.014Z,5.25
2017-05-11T00:09:48.159Z,5.2
2017-05-11T00:11:09.677Z,5.17
2017-05-11T00:12:31.459Z,5.2
2017-05-11T00:13:53.916Z,5.25
2017-05-11T00:15:15.761Z,5.1
2017-05-11T00:16:37.276Z,5.09
2017-05-11T00:17:59.536Z,5.15
2017-05-11T00:19:21.047Z,5.07
2017-05-11T00:20:42.549Z,5.02
2017-05-11T00:22:04.456Z,4.88
2017-05-11T00:23:26.979Z,4.91
2017-05-11T00:24:48.789Z,4.89
2017-05-11T00:26:10.955Z,4.99
2017-05-11T00:27:32.567Z,4.96
2017-05-11T00:28:54.677Z,5
2017-05-11T00:30:16.178Z,4.94
2017-05-11T00:31:37.684Z,4.96
2017-05-11T00:32:59.548Z,4.82
2017-05-11T00:34:22.009Z,4.97
2017-05-11T00:35:44.158Z,4.82
2017-05-11T00:37:05.665Z,4.88
2017-05-11T00:38:28.198Z,4.8
2017-05-11T00:39:50.000Z,4.78
2017-05-11T00:41:12.138Z,4.78
2017-05-11T00:42:34.004Z,4.84
2017-05-11T00:43:55.888Z,4.77
2017-05-11T00:45:17.810Z,4.73
2017-05-11T00:46:39.759Z,4.82
2017-05-11T00:48:01.663Z,4.73
2017-05-11T00:49:23.639Z,4.73
2017-05-11T00:50:46.196Z,4.67
2017-05-11T00:52:08.412Z,4.6
2017-05-11T00:53:30.876Z,4.51
2017-05-11T00:54:52.101Z,4.51
2017-05-11T00:56:14.529Z,4.45
2017-05-11T00:57:36.761Z,4.44
2017-05-11T00:58:59.230Z,4.37
2017-05-11T01:00:21.048Z,4.36
2017-05-11T01:01:43.247Z,4.42
2017-05-11T01:03:05.164Z,4.36
2017-05-11T01:04:26.978Z,4.3
2017-05-11T01:05:49.129Z,4.29
2017-05-11T01:07:11.292Z,4.37
2017-05-11T01:08:33.138Z,4.33
2017-05-11T01:09:55.414Z,4.34
2017-05-11T01:11:17.643Z,4.4
2017-05-11T01:12:40.354Z,4.33
2017-05-11T01:14:02.519Z,4.3
2017-05-11T01:15:24.653Z,4.36
2017-05-11T01:16:46.810Z,4.27
2017-05-11T01:18:09.320Z,4.29
2017-05-11T01:19:31.459Z,4.23
2017-05-11T01:20:53.433Z,4.24
2017-05-11T01:22:14.960Z,4.11
2017-05-11T01:23:37.684Z,4.08
2017-05-11T01:24:59.830Z,4.14
2017-05-11T01:26:22.408Z,4.04
2017-05-11T01:27:44.908Z,4.09
2017-05-11T01:29:06.392Z,4.05
2017-05-11T01:30:28.236Z,3.98
2017-05-11T01:31:50.074Z,4.06
2017-05-11T01:33:11.977Z,4.08
2017-05-11T01:34:34.109Z,4.05
2017-05-11T01:35:55.618Z,4.05
2017-05-11T01:37:17.478Z,3.98
2017-05-11T01:38:39.728Z,4.05
2017-05-11T01:40:01.969Z,4.08
2017-05-11T01:41:24.119Z,3.98
2017-05-11T01:42:46.576Z,4.08
2017-05-11T01:44:08.400Z,3.97
2017-05-11T01:45:30.229Z,4
2017-05-11T01:46:52.065Z,3.97
2017-05-11T01:48:13.921Z,3.97
2017-05-11T01:49:36.062Z,3.93
2017-05-11T01:50:58.195Z,3.86
2017-05-11T01:52:20.369Z,3.83
2017-05-11T01:53:42.608Z,3.84
2017-05-11T01:55:03.875Z,3.83
2017-05-11T01:56:26.007Z,3.83
2017-05-11T01:57:47.849Z,3.8
2017-05-11T01:59:10.091Z,3.84
2017-05-11T02:00:31.618Z,3.83
2017-05-11T02:01:53.467Z,3.88
2017-05-11T02:03:14.731Z,3.96
2017-05-11T02:04:35.603Z,3.86
2017-05-11T02:05:57.440Z,3.8
2017-05-11T02:07:19.198Z,3.73
2017-05-11T02:08:41.036Z,3.73
2017-05-11T02:10:02.879Z,3.69
2017-05-11T02:11:24.493Z,3.76
2017-05-11T02:12:46.609Z,3.75
2017-05-11T02:14:09.048Z,3.73
2017-05-11T02:15:31.324Z,3.73
2017-05-11T02:16:53.161Z,3.7
2017-05-11T02:18:15.918Z,3.76
2017-05-11T02:19:37.839Z,3.68
2017-05-11T02:20:59.788Z,3.75
2017-05-11T02:22:21.326Z,3.69
2017-05-11T02:23:44.067Z,3.6
2017-05-11T02:25:06.227Z,3.6
2017-05-11T02:26:28.373Z,3.55
2017-05-11T02:27:50.308Z,3.6
2017-05-11T02:29:12.184Z,3.62
2017-05-11T02:30:33.916Z,3.68
2017-05-11T02:31:56.188Z,3.69
2017-05-11T02:33:18.114Z,3.62
2017-05-11T02:34:40.245Z,3.69
2017-05-11T02:36:02.398Z,3.69
2017-05-11T02:37:24.529Z,3.68
2017-05-11T02:38:46.658Z,3.61
2017-05-11T02:40:09.050Z,3.66
2017-05-11T02:41:31.236Z,3.52
2017-05-11T02:42:53.078Z,3.58
2017-05-11T02:44:14.584Z,3.57
2017-05-11T02:45:37.018Z,3.47
2017-05-11T02:46:58.513Z,3.45
2017-05-11T02:48:20.656Z,3.45
2017-05-11T02:49:42.487Z,3.5
2017-05-11T02:51:05.398Z,3.47
2017-05-11T02:52:28.005Z,3.4
2017-05-11T02:53:50.513Z,3.42
2017-05-11T02:55:12.679Z,3.48
2017-05-11T02:56:34.426Z,3.43
2017-05-11T02:57:56.873Z,3.5
2017-05-11T02:59:18.708Z,3.4
2017-05-11T03:00:40.219Z,3.4
2017-05-11T03:02:02.018Z,3.32
2017-05-11T03:03:24.153Z,3.33
2017-05-11T03:04:46.297Z,3.35
2017-05-11T03:06:07.854Z,3.29
2017-05-11T03:07:29.782Z,3.35
2017-05-11T03:08:52.323Z,3.36
2017-05-11T03:10:14.138Z,3.35
2017-05-11T03:11:35.968Z,3.32
2017-05-11T03:12:58.721Z,3.35
2017-05-11T03:14:21.542Z,3.39
2017-05-11T03:15:43.376Z,3.29
2017-05-11T03:17:05.229Z,3.29
2017-05-11T03:18:27.458Z,3.36
2017-05-11T03:19:49.316Z,3.29
2017-05-11T03:21:10.816Z,3.33
2017-05-11T03:22:32.849Z,3.28
2017-05-11T03:23:55.098Z,3.28
2017-05-11T03:25:16.386Z,3.28
2017-05-11T03:26:37.579Z,3.21
2017-05-11T03:27:59.406Z,3.17
2017-05-11T03:29:22.238Z,3.17
2017-05-11T03:30:43.809Z,3.13
2017-05-11T03:32:04.988Z,3.15
2017-05-11T03:33:26.497Z,3.17
2017-05-11T03:34:48.948Z,3.18
2017-05-11T03:36:10.777Z,3.17
2017-05-11T03:37:32.908Z,3.21
2017-05-11T03:38:55.473Z,3.29
2017-05-11T03:40:17.961Z,3.31
2017-05-11T03:41:40.111Z,3.28
2017-05-11T03:43:02.258Z,3.32
2017-05-11T03:44:23.756Z,3.32
2017-05-11T03:45:45.986Z,3.36
2017-05-11T03:47:07.589Z,3.35
2017-05-11T03:48:29.724Z,3.31
2017-05-11T03:49:50.945Z,3.39
2017-05-11T03:51:13.026Z,3.39
2017-05-11T03:52:35.300Z,3.4
2017-05-11T03:53:57.579Z,3.48
2017-05-11T03:55:19.422Z,3.58
2017-05-11T03:56:41.918Z,3.52
2017-05-11T03:58:03.428Z,3.68
2017-05-11T03:59:24.938Z,3.57
2017-05-11T04:00:46.511Z,3.68
2017-05-11T04:02:08.949Z,3.76
2017-05-11T04:03:30.787Z,3.78
2017-05-11T04:04:52.723Z,3.79
2017-05-11T04:06:14.236Z,3.9
2017-05-11T04:07:36.669Z,3.97
2017-05-11T04:08:58.502Z,3.96
2017-05-11T04:10:20.416Z,3.98
2017-05-11T04:11:42.423Z,3.97
2017-05-11T04:13:04.811Z,4.05
2017-05-11T04:14:26.337Z,4.08
2017-05-11T04:15:47.848Z,4.15
2017-05-11T04:17:09.664Z,4.18
2017-05-11T04:18:32.092Z,4.12
2017-05-11T04:19:53.895Z,4.18
2017-05-11T04:21:16.059Z,4.26
2017-05-11T04:22:37.989Z,4.33
2017-05-11T04:23:59.483Z,4.32
2017-05-11T04:25:21.318Z,4.34
2017-05-11T04:26:43.139Z,4.42
2017-05-11T04:28:04.952Z,4.44
2017-05-11T04:29:27.039Z,4.44
2017-05-11T04:30:48.879Z,4.51
2017-05-11T04:32:10.390Z,4.51
2017-05-11T04:33:32.220Z,4.58
2017-05-11T04:34:54.680Z,4.63
2017-05-11T04:36:17.135Z,4.62
2017-05-11T04:37:38.957Z,4.59
2017-05-11T04:39:00.171Z,4.78
2017-05-11T04:40:22.649Z,4.77
2017-05-11T04:41:44.468Z,4.78
2017-05-11T04:43:06.606Z,4.84
2017-05-11T04:44:28.767Z,4.82
2017-05-11T04:45:50.940Z,4.84
2017-05-11T04:47:13.100Z,4.97
2017-05-11T04:48:35.555Z,4.96
2017-05-11T04:49:57.082Z,4.99
2017-05-11T04:51:18.907Z,5.03
2017-05-11T04:52:40.417Z,5.03
2017-05-11T04:54:02.245Z,5.06
2017-05-11T04:55:24.828Z,5.12
2017-05-11T04:56:46.698Z,5.2
2017-05-11T04:58:09.143Z,5.17
2017-05-11T04:59:31.020Z,5.28
2017-05-11T05:00:52.869Z,5.28
2017-05-11T05:02:15.388Z,5.38
2017-05-11T05:03:37.533Z,5.46
2017-05-11T05:04:59.685Z,5.67
2017-05-11T05:06:21.508Z,5.81
2017-05-11T05:07:43.371Z,6.21
2017-05-11T05:09:04.950Z,6.7
2017-05-11T05:10:26.471Z,7.13
2017-05-11T05:11:48.600Z,7.35
2017-05-11T05:13:11.048Z,7.52
2017-05-11T05:14:33.667Z,7.67
2017-05-11T05:15:55.825Z,8.33
2017-05-11T05:17:17.665Z,9.28
2017-05-11T05:18:39.796Z,10.34
2017-05-11T05:20:02.024Z,10.68
2017-05-11T05:21:23.546Z,11.24
2017-05-11T05:22:45.698Z,11.6
2017-05-11T05:24:07.838Z,12.01
2017-05-11T05:25:30.321Z,12.28
2017-05-11T05:26:52.788Z,12.29
2017-05-11T05:28:13.989Z,12.41
2017-05-11T05:29:36.899Z,12.74
2017-05-11T05:30:59.038Z,13.22
2017-05-11T05:32:21.517Z,14.04
2017-05-11T05:33:43.364Z,14.68
2017-05-11T05:35:05.207Z,14.96
2017-05-11T05:36:27.768Z,14.75
2017-05-11T05:37:50.018Z,15.2
2017-05-11T05:39:12.171Z,15.34
2017-05-11T05:40:34.259Z,15.34
2017-05-11T05:41:56.209Z,15.16
2017-05-11T05:43:17.179Z,15.57
2017-05-11T05:44:39.655Z,15.82
2017-05-11T05:46:01.808Z,15.72
2017-05-11T05:47:23.665Z,15.44
2017-05-11T05:48:45.857Z,15.78
2017-05-11T05:50:07.399Z,15.86
2017-05-11T05:51:29.263Z,16.09
2017-05-11T05:52:51.533Z,16.57
2017-05-11T05:54:13.385Z,17.01
2017-05-11T05:55:35.222Z,17.18
2017-05-11T05:56:57.356Z,17.81
2017-05-11T05:58:19.491Z,17.82
2017-05-11T05:59:41.330Z,18.58
2017-05-11T06:01:03.196Z,18.37
2017-05-11T06:02:25.450Z,18.23
2017-05-11T06:03:47.932Z,18
2017-05-11T06:05:09.764Z,18.36
2017-05-11T06:06:31.763Z,18.78
2017-05-11T06:07:53.569Z,19.08
2017-05-11T06:09:15.086Z,19.29
2017-05-11T06:10:37.246Z,20.1
2017-05-11T06:11:59.395Z,19.76
2017-05-11T06:13:21.912Z,20.23
2017-05-11T06:14:43.742Z,19.63
2017-05-11T06:16:06.269Z,19.13
2017-05-11T06:17:28.495Z,19.43
2017-05-11T06:18:51.270Z,20.62
2017-05-11T06:20:13.212Z,20.62
2017-05-11T06:21:35.159Z,19.96
2017-05-11T06:22:57.359Z,19.68
2017-05-11T06:24:20.190Z,19.76
2017-05-11T06:25:42.360Z,20.35
2017-05-11T06:27:04.611Z,19.78
2017-05-11T06:28:26.496Z,20.79
2017-05-11T06:29:48.958Z,20.1
2017-05-11T06:31:11.210Z,19.95
2017-05-11T06:32:33.054Z,20.77
2017-05-11T06:33:54.899Z,22
2017-05-11T06:35:16.807Z,22.42
2017-05-11T06:36:38.656Z,21.46
2017-05-11T06:38:01.125Z,20.59
2017-05-11T06:39:22.651Z,20.69
2017-05-11T06:40:44.566Z,20.42
2017-05-11T06:42:07.048Z,21.9
2017-05-11T06:43:29.246Z,22.47
2017-05-11T06:44:51.099Z,22.52
2017-05-11T06:46:13.189Z,22.62
2017-05-11T06:47:35.801Z,23.07
2017-05-11T06:48:57.655Z,23.4
2017-05-11T06:50:19.542Z,22.73
2017-05-11T06:51:41.410Z,22.03
2017-05-11T06:53:03.030Z,20.28
2017-05-11T06:54:25.609Z,20.59
2017-05-11T06:55:47.467Z,20.76
2017-05-11T06:57:09.628Z,21.04
2017-05-11T06:58:32.159Z,22.25
2017-05-11T06:59:54.037Z,23.09
2017-05-11T07:01:16.281Z,22.45
2017-05-11T07:02:38.768Z,22.37
2017-05-11T07:04:00.977Z,20.94
2017-05-11T07:05:22.836Z,19.92
2017-05-11T07:06:45.295Z,19.91
2017-05-11T07:08:07.079Z,19.77
2017-05-11T07:09:28.603Z,19.47
2017-05-11T07:10:50.813Z,19.96
2017-05-11T07:12:13.280Z,20.61
2017-05-11T07:13:35.191Z,21.27
2017-05-11T07:14:56.719Z,21.72
2017-05-11T07:16:18.571Z,20.94
2017-05-11T07:17:40.778Z,20.87
2017-05-11T07:19:03.028Z,20.7
2017-05-11T07:20:24.926Z,19.99
2017-05-11T07:21:46.830Z,21.29
2017-05-11T07:23:09.028Z,23.22
2017-05-11T07:24:31.461Z,23.72
2017-05-11T07:25:53.309Z,24.71
2017-05-11T07:27:15.578Z,24.39
2017-05-11T07:28:37.503Z,24.62
2017-05-11T07:29:59.009Z,25.18
2017-05-11T07:31:20.910Z,25.23
2017-05-11T07:32:43.407Z,24.85
2017-05-11T07:34:05.136Z,24.87
2017-05-11T07:35:26.971Z,25.14
2017-05-11T07:36:48.809Z,24.58
2017-05-11T07:38:10.698Z,23.53
2017-05-11T07:39:33.190Z,23.31
2017-05-11T07:40:55.395Z,23.75
2017-05-11T07:42:17.659Z,23.31
2017-05-11T07:43:40.209Z,23.93
2017-05-11T07:45:02.177Z,24.98
2017-05-11T07:46:24.360Z,25.4
2017-05-11T07:47:46.659Z,23.38
2017-05-11T07:49:08.519Z,22.43
2017-05-11T07:50:30.798Z,21.88
2017-05-11T07:51:53.320Z,21.5
2017-05-11T07:53:14.851Z,21.9
2017-05-11T07:54:36.738Z,22.1
2017-05-11T07:55:58.620Z,22.1
2017-05-11T07:57:20.779Z,20.99
2017-05-11T07:58:42.941Z,20.38
2017-05-11T08:00:05.107Z,20.05
2017-05-11T08:01:26.950Z,19.76
2017-05-11T08:02:49.734Z,19.66
2017-05-11T08:04:12.041Z,19.14
2017-05-11T08:05:33.887Z,17.51
2017-05-11T08:06:56.079Z,16.64
2017-05-11T08:08:18.408Z,16.2
2017-05-11T08:09:40.885Z,16.09
2017-05-11T08:11:03.071Z,15.82
2017-05-11T08:12:25.545Z,15.29
2017-05-11T08:13:48.059Z,14.99
2017-05-11T08:15:09.695Z,14.89
2017-05-11T08:16:31.578Z,14.57
2017-05-11T08:17:53.442Z,14.68
2017-05-11T08:19:15.556Z,14.69
2017-05-11T08:20:37.110Z,14.55
2017-05-11T08:21:58.996Z,14.24
2017-05-11T08:23:20.841Z,14.2
2017-05-11T08:24:42.998Z,14.21
2017-05-11T08:26:04.511Z,14.33
2017-05-11T08:27:26.666Z,14.55
2017-05-11T08:28:48.849Z,14.88
2017-05-11T08:30:11.045Z,14.95
2017-05-11T08:31:33.521Z,15.02
2017-05-11T08:32:55.687Z,14.6
2017-05-11T08:34:18.198Z,14.55
2017-05-11T08:35:40.378Z,14.36
2017-05-11T08:37:02.670Z,14.24
2017-05-11T08:38:25.136Z,14.33
2017-05-11T08:39:46.338Z,14.57
2017-05-11T08:41:07.930Z,14.73
2017-05-11T08:42:30.162Z,14.89
2017-05-11T08:43:52.798Z,14.77
2017-05-11T08:45:14.648Z,14.8
2017-05-11T08:46:36.918Z,14.7
2017-05-11T08:47:58.851Z,14.94
2017-05-11T08:49:21.114Z,14.81
2017-05-11T08:50:42.636Z,14.84
2017-05-11T08:52:05.003Z,14.96
2017-05-11T08:53:26.522Z,15.07
2017-05-11T08:54:48.677Z,15.14
2017-05-11T08:56:10.219Z,15.07
2017-05-11T08:57:32.566Z,15.1
2017-05-11T08:58:54.728Z,15.41
2017-05-11T09:00:16.588Z,15.56
2017-05-11T09:01:38.428Z,15.56
2017-05-11T09:03:01.520Z,15.69
2017-05-11T09:04:23.049Z,15.96
2017-05-11T09:05:44.678Z,16.01
2017-05-11T09:07:06.220Z,15.75
2017-05-11T09:08:28.039Z,15.67
2017-05-11T09:09:50.191Z,15.75
2017-05-11T09:11:12.347Z,15.72
2017-05-11T09:12:34.378Z,15.64
2017-05-11T09:13:56.209Z,15.67
2017-05-11T09:15:18.046Z,15.68
2017-05-11T09:16:39.947Z,15.74
2017-05-11T09:18:02.128Z,15.83
2017-05-11T09:19:24.689Z,15.75
2017-05-11T09:20:46.920Z,15.74
2017-05-11T09:22:08.876Z,15.78
2017-05-11T09:23:31.050Z,15.69
2017-05-11T09:24:53.239Z,15.75
2017-05-11T09:26:15.374Z,15.67
2017-05-11T09:27:36.258Z,15.69
2017-05-11T09:28:57.469Z,15.75
2017-05-11T09:30:18.851Z,16.08
2017-05-11T09:31:41.007Z,16.01
2017-05-11T09:33:02.200Z,15.82
2017-05-11T09:34:24.620Z,15.9
2017-05-11T09:35:46.698Z,16
2017-05-11T09:37:08.534Z,16.31
2017-05-11T09:38:30.438Z,16.41
2017-05-11T09:39:52.295Z,16.58
2017-05-11T09:41:14.449Z,16.52
2017-05-11T09:42:36.628Z,16.67
2017-05-11T09:43:58.771Z,16.79
2017-05-11T09:45:20.929Z,16.97
2017-05-11T09:46:43.398Z,16.68
2017-05-11T09:48:05.238Z,16.93
2017-05-11T09:49:26.761Z,16.93
2017-05-11T09:50:48.955Z,17
2017-05-11T09:52:11.753Z,16.82
2017-05-11T09:53:33.283Z,16.68
2017-05-11T09:54:55.155Z,16.61
2017-05-11T09:56:17.101Z,16.63
2017-05-11T09:57:39.525Z,16.57
2017-05-11T09:59:01.698Z,16.86
2017-05-11T10:00:23.846Z,17
2017-05-11T10:01:45.375Z,16.98
2017-05-11T10:03:07.531Z,16.96
2017-05-11T10:04:30.084Z,17
2017-05-11T10:05:52.691Z,17.06
2017-05-11T10:07:14.576Z,17.19
2017-05-11T10:08:37.095Z,16.97
2017-05-11T10:09:58.296Z,16.98
2017-05-11T10:11:20.503Z,16.93
2017-05-11T10:12:42.408Z,17.01
2017-05-11T10:14:04.559Z,17.08
2017-05-11T10:15:26.830Z,17.18
2017-05-11T10:16:48.677Z,16.88
2017-05-11T10:18:10.838Z,16.83
2017-05-11T10:19:32.684Z,16.97
2017-05-11T10:20:54.515Z,17.12
2017-05-11T10:22:16.708Z,16.85
2017-05-11T10:23:38.661Z,16.96
2017-05-11T10:25:01.177Z,17.11
2017-05-11T10:26:22.696Z,17.16
2017-05-11T10:27:44.855Z,17.31
2017-05-11T10:29:06.787Z,17.49
2017-05-11T10:30:28.574Z,17.44
2017-05-11T10:31:50.095Z,17.22
2017-05-11T10:33:12.658Z,17.31
2017-05-11T10:34:34.559Z,17.28
2017-05-11T10:35:56.983Z,17.34
2017-05-11T10:37:19.136Z,17.33
2017-05-11T10:38:40.998Z,17.3
2017-05-11T10:40:03.359Z,17.54
2017-05-11T10:41:25.539Z,17.54
2017-05-11T10:42:47.388Z,17.59
2017-05-11T10:44:08.908Z,17.81
2017-05-11T10:45:30.820Z,17.87
2017-05-11T10:46:53.601Z,17.7
2017-05-11T10:48:15.451Z,17.49
2017-05-11T10:49:37.362Z,17.33
2017-05-11T10:50:59.255Z,17.43
2017-05-11T10:52:21.428Z,17.56
2017-05-11T10:53:43.762Z,17.62
2017-05-11T10:55:05.628Z,17.64
2017-05-11T10:56:27.489Z,17.79
2017-05-11T10:57:49.308Z,17.7
2017-05-11T10:59:11.557Z,17.75
2017-05-11T11:00:33.724Z,17.92
2017-05-11T11:01:55.257Z,18.15
2017-05-11T11:03:17.407Z,17.95
2017-05-11T11:04:39.250Z,18.07
2017-05-11T11:06:01.735Z,18.18
2017-05-11T11:07:23.884Z,18.26
2017-05-11T11:08:46.704Z,18.3
2017-05-11T11:10:08.215Z,18.32
2017-05-11T11:11:30.106Z,18.33
2017-05-11T11:13:23.918Z,18.21
2017-05-11T11:14:46.109Z,18.18
2017-05-11T11:16:08.284Z,18.17
2017-05-11T11:17:30.140Z,18.18
2017-05-11T11:18:52.388Z,18.2
2017-05-11T11:20:14.844Z,18.27
2017-05-11T11:21:36.719Z,18.41
2017-05-11T11:22:59.230Z,18.57
2017-05-11T11:24:21.700Z,18.75
2017-05-11T11:25:44.520Z,18.67
2017-05-11T11:27:06.677Z,18.73
2017-05-11T11:28:28.543Z,18.91
2017-05-11T11:29:50.438Z,18.87
2017-05-11T11:31:12.605Z,18.62
2017-05-11T11:32:34.453Z,18.6
2017-05-11T11:33:55.967Z,18.72
2017-05-11T11:35:18.251Z,18.76
2017-05-11T11:36:40.854Z,18.84
2017-05-11T11:38:02.717Z,19.08
2017-05-11T11:39:24.847Z,19.11
2017-05-11T11:40:46.386Z,19.18
2017-05-11T11:42:08.855Z,19.22
2017-05-11T11:43:31.058Z,19.28
2017-05-11T11:44:53.532Z,19.11
2017-05-11T11:46:15.375Z,18.91
2017-05-11T11:47:37.520Z,18.94
2017-05-11T11:48:59.738Z,18.91
2017-05-11T11:50:21.962Z,19.08
2017-05-11T11:51:44.239Z,19.29
2017-05-11T11:53:06.776Z,19.46
2017-05-11T11:54:29.087Z,19.37
2017-05-11T11:55:50.695Z,19.26
2017-05-11T11:57:12.564Z,19.1
2017-05-11T11:58:35.079Z,19.06
2017-05-11T11:59:56.929Z,19.07
2017-05-11T12:01:19.230Z,19.04
2017-05-11T12:02:41.399Z,19.06
2017-05-11T12:04:03.594Z,19.19
2017-05-11T12:05:25.764Z,19.31
2017-05-11T12:06:47.380Z,19.37
2017-05-11T12:08:09.380Z,19.31
2017-05-11T12:09:31.527Z,19.23
2017-05-11T12:10:53.746Z,19.16
2017-05-11T12:12:15.898Z,19.26
2017-05-11T12:13:38.054Z,19.44
2017-05-11T12:15:00.260Z,19.29
2017-05-11T12:16:22.807Z,19.46
2017-05-11T12:17:44.690Z,19.33
2017-05-11T12:19:06.514Z,19.39
2017-05-11T12:20:28.966Z,19.4
2017-05-11T12:21:51.448Z,19.56
2017-05-11T12:23:12.653Z,19.46
2017-05-11T12:24:35.024Z,19.58
2017-05-11T12:25:57.317Z,19.77
2017-05-11T12:27:19.167Z,19.77
2017-05-11T12:28:41.338Z,19.77
2017-05-11T12:30:03.647Z,19.71
2017-05-11T12:31:25.898Z,19.91
2017-05-11T12:32:48.439Z,20.03
2017-05-11T12:34:10.313Z,19.99
2017-05-11T12:35:32.468Z,20.06
2017-05-11T12:36:54.921Z,19.96
2017-05-11T12:38:17.486Z,20.02
2017-05-11T12:39:39.140Z,20.01
2017-05-11T12:41:01.385Z,19.94
2017-05-11T12:42:24.219Z,20.01
2017-05-11T12:43:46.176Z,20.05
2017-05-11T12:45:08.331Z,20.05
2017-05-11T12:46:30.506Z,20.17
2017-05-11T12:47:52.915Z,20.17
2017-05-11T12:49:15.064Z,20.06
2017-05-11T12:50:37.556Z,19.95
2017-05-11T12:52:00.036Z,20.1
2017-05-11T12:53:22.878Z,20.06
2017-05-11T12:54:45.377Z,20.17
2017-05-11T12:56:06.920Z,20.26
2017-05-11T12:57:29.070Z,20.2
2017-05-11T12:58:51.547Z,20.21
2017-05-11T13:00:13.806Z,20.33
2017-05-11T13:01:35.390Z,20.41
2017-05-11T13:02:56.915Z,20.41
2017-05-11T13:04:19.047Z,20.48
2017-05-11T13:05:41.299Z,20.55
2017-05-11T13:07:03.136Z,20.51
2017-05-11T13:08:24.381Z,20.35
2017-05-11T13:09:46.905Z,20.23
2017-05-11T13:11:09.105Z,20.2
2017-05-11T13:12:30.727Z,20.32
2017-05-11T13:13:52.578Z,20.33
2017-05-11T13:15:15.084Z,20.5
2017-05-11T13:16:37.017Z,20.5
2017-05-11T13:17:59.237Z,20.59
2017-05-11T13:19:21.447Z,20.72
2017-05-11T13:20:43.980Z,20.79
2017-05-11T13:22:06.198Z,20.79
2017-05-11T13:23:28.174Z,20.73
2017-05-11T13:24:50.685Z,20.73
2017-05-11T13:26:12.826Z,20.89
2017-05-11T13:27:34.385Z,20.89
2017-05-11T13:28:56.952Z,20.77
2017-05-11T13:30:18.904Z,20.87
2017-05-11T13:31:40.844Z,20.76
2017-05-11T13:33:02.416Z,20.87
2017-05-11T13:34:24.259Z,20.67
2017-05-11T13:35:46.486Z,20.7
2017-05-11T13:37:08.576Z,20.73
2017-05-11T13:38:31.064Z,20.89
2017-05-11T13:40:25.528Z,20.77
2017-05-11T13:41:47.705Z,20.73
2017-05-11T13:43:10.584Z,20.7
2017-05-11T13:44:32.847Z,20.8
2017-05-11T13:45:54.457Z,20.79
2017-05-11T13:47:17.006Z,20.94
2017-05-11T13:48:38.891Z,20.88
2017-05-11T13:50:01.067Z,20.89
2017-05-11T13:51:23.228Z,20.94
2017-05-11T13:52:45.381Z,20.97
2017-05-11T13:54:07.868Z,20.97
2017-05-11T13:55:30.326Z,20.92
2017-05-11T13:56:52.527Z,21.12
2017-05-11T13:58:14.094Z,20.89
2017-05-11T13:59:35.628Z,20.98
2017-05-11T14:00:57.877Z,20.98
2017-05-11T14:02:19.402Z,21.14
2017-05-11T14:03:41.597Z,21.09
2017-05-11T14:05:02.811Z,21.12
2017-05-11T14:06:25.082Z,21.12
2017-05-11T14:07:46.626Z,21.16
2017-05-11T14:09:09.119Z,21.13
2017-05-11T14:10:31.285Z,21.12
2017-05-11T14:11:53.133Z,21.14
2017-05-11T14:13:14.988Z,21.1
2017-05-11T14:14:37.489Z,21.01
2017-05-11T14:15:59.978Z,20.91
2017-05-11T14:17:21.517Z,21.07
2017-05-11T14:18:43.380Z,21.21
2017-05-11T14:20:06.177Z,21.12
2017-05-11T14:21:28.025Z,21.22
2017-05-11T14:22:49.315Z,21.14
2017-05-11T14:24:11.471Z,21.12
2017-05-11T14:25:34.269Z,21.22
2017-05-11T14:26:56.517Z,21.14
2017-05-11T14:28:18.442Z,21.19
2017-05-11T14:29:40.597Z,21.19
2017-05-11T14:31:03.073Z,21.19
2017-05-11T14:32:25.224Z,21.37
2017-05-11T14:33:47.369Z,21.29
2017-05-11T14:35:09.851Z,21.29
2017-05-11T14:36:32.666Z,21.42
2017-05-11T14:37:55.164Z,21.53
2017-05-11T14:39:17.008Z,21.61
2017-05-11T14:40:39.568Z,21.75
2017-05-11T14:42:01.259Z,21.59
2017-05-11T14:43:22.470Z,21.43
2017-05-11T14:44:45.056Z,21.43
2017-05-11T14:46:07.528Z,21.58
2017-05-11T14:47:30.376Z,21.64
2017-05-11T14:48:52.568Z,21.65
2017-05-11T14:50:14.407Z,21.59
2017-05-11T14:51:36.609Z,21.59
2017-05-11T14:52:59.092Z,21.74
2017-05-11T14:54:20.947Z,21.68
2017-05-11T14:55:43.236Z,21.71
2017-05-11T14:57:05.423Z,21.69
2017-05-11T14:58:27.285Z,21.77
2017-05-11T14:59:48.807Z,21.91
2017-05-11T15:01:10.342Z,21.91
2017-05-11T15:02:32.867Z,21.72
2017-05-11T15:03:55.294Z,21.71
2017-05-11T15:05:17.788Z,21.56
2017-05-11T15:06:39.637Z,21.59
2017-05-11T15:08:01.165Z,21.79
2017-05-11T15:09:24.064Z,21.71
2017-05-11T15:10:45.595Z,21.74
2017-05-11T15:12:08.135Z,21.99
2017-05-11T15:13:30.338Z,22.02
2017-05-11T15:14:52.707Z,22.06
2017-05-11T15:16:14.949Z,22.02
2017-05-11T15:17:36.521Z,21.94
2017-05-11T15:18:58.450Z,21.86
2017-05-11T15:20:20.976Z,21.69
2017-05-11T15:21:42.886Z,21.54
2017-05-11T15:23:04.816Z,21.28
2017-05-11T15:24:26.741Z,21.29
2017-05-11T15:25:49.674Z,21.27
2017-05-11T15:27:12.158Z,21.27
2017-05-11T15:28:33.706Z,21.31
2017-05-11T15:30:27.862Z,21.31
2017-05-11T15:31:50.669Z,21.31
2017-05-11T15:33:13.186Z,21.29
2017-05-11T15:34:35.667Z,21.31
2017-05-11T15:35:58.457Z,21.47
2017-05-11T15:37:20.963Z,21.58
2017-05-11T15:38:43.178Z,21.61
2017-05-11T15:40:05.068Z,21.69
2017-05-11T15:41:27.839Z,21.77
2017-05-11T15:42:49.364Z,21.88
2017-05-11T15:44:11.359Z,21.86
2017-05-11T15:45:33.535Z,22.05
2017-05-11T15:46:55.702Z,21.94
2017-05-11T15:48:17.955Z,21.98
2017-05-11T15:49:39.504Z,21.94
2017-05-11T15:51:01.397Z,21.96
2017-05-11T15:52:23.631Z,21.94
2017-05-11T15:53:45.185Z,21.94
2017-05-11T15:55:06.818Z,21.92
2017-05-11T15:56:29.056Z,21.88
2017-05-11T15:57:50.990Z,22.03
2017-05-11T15:59:13.611Z,21.94
2017-05-11T16:00:36.128Z,21.82
2017-05-11T16:01:58.721Z,21.84
2017-05-11T16:03:20.970Z,21.71
2017-05-11T16:04:42.846Z,21.77
2017-05-11T16:06:04.884Z,21.84
2017-05-11T16:07:26.857Z,21.83
2017-05-11T16:08:49.068Z,21.83
2017-05-11T16:10:11.590Z,21.84
2017-05-11T16:11:33.821Z,21.83
2017-05-11T16:12:56.008Z,21.82
2017-05-11T16:14:18.526Z,21.8
2017-05-11T16:15:40.057Z,21.72
2017-05-11T16:17:01.960Z,21.64
2017-05-11T16:18:24.447Z,21.59
2017-05-11T16:19:46.600Z,21.61
2017-05-11T16:21:08.780Z,21.59
2017-05-11T16:22:31.060Z,21.54
2017-05-11T16:23:53.517Z,21.54
2017-05-11T16:25:15.497Z,21.62
2017-05-11T16:26:38.037Z,21.67
2017-05-11T16:28:00.549Z,21.69
2017-05-11T16:29:22.828Z,21.71
2017-05-11T16:30:45.849Z,21.69
2017-05-11T16:32:08.019Z,21.62
2017-05-11T16:33:30.217Z,21.68
2017-05-11T16:34:52.717Z,21.56
2017-05-11T16:36:15.206Z,21.58
2017-05-11T16:37:37.098Z,21.47
2017-05-11T16:38:59.620Z,21.43
2017-05-11T16:40:22.006Z,21.52
2017-05-11T16:41:44.628Z,21.54
2017-05-11T16:43:06.539Z,21.58
2017-05-11T16:44:29.113Z,21.49
2017-05-11T16:45:51.616Z,21.58
2017-05-11T16:47:13.767Z,21.59
2017-05-11T16:48:35.329Z,21.67
2017-05-11T16:49:57.837Z,21.62
2017-05-11T16:51:19.524Z,21.67
2017-05-11T16:52:42.273Z,21.77
2017-05-11T16:54:04.907Z,21.62
2017-05-11T16:55:26.779Z,21.54
2017-05-11T16:56:49.265Z,21.53
2017-05-11T16:58:11.567Z,21.42
2017-05-11T16:59:33.737Z,21.35
2017-05-11T17:00:55.598Z,21.29
2017-05-11T17:02:17.466Z,21.31
2017-05-11T17:03:39.618Z,21.21
2017-05-11T17:05:01.546Z,21.22
2017-05-11T17:06:23.806Z,21.16
2017-05-11T17:07:45.966Z,21.12
2017-05-11T17:09:08.438Z,21.14
2017-05-11T17:10:30.667Z,21.06
2017-05-11T17:11:52.997Z,21.07
2017-05-11T17:13:14.852Z,20.99
2017-05-11T17:14:37.424Z,20.89
2017-05-11T17:16:00.064Z,20.87
2017-05-11T17:17:22.254Z,20.73
2017-05-11T17:18:44.131Z,20.61
2017-05-11T17:20:07.043Z,20.67
2017-05-11T17:21:29.458Z,20.55
2017-05-11T17:22:51.649Z,20.55
2017-05-11T17:24:14.154Z,20.47
2017-05-11T17:25:36.673Z,20.51
2017-05-11T17:26:58.864Z,20.38
2017-05-11T17:28:21.369Z,20.36
2017-05-11T17:29:43.542Z,20.32
2017-05-11T17:31:05.693Z,20.33
2017-05-11T17:32:28.196Z,20.23
2017-05-11T17:33:50.802Z,20.17
2017-05-11T17:35:13.276Z,20.08
2017-05-11T17:36:35.428Z,20.1
2017-05-11T17:37:57.952Z,20.08
2017-05-11T17:39:19.809Z,19.96
2017-05-11T17:40:42.331Z,20.02
2017-05-11T17:42:04.472Z,19.92
2017-05-11T17:43:26.992Z,19.78
2017-05-11T17:44:49.567Z,19.74
2017-05-11T17:46:11.753Z,19.74
2017-05-11T17:47:34.618Z,19.78
2017-05-11T17:48:56.926Z,19.73
2017-05-11T17:50:19.106Z,19.66
2017-05-11T17:51:41.604Z,19.71